Time;durP1;ratioP1;P1;durP2;ratioP2;P2;SDS_P1;SDS_P2;PMS_P1;PMS_P2;Temp;Humidity;BMP_temperature;BMP_pressure;BME280_temperature;BME280_humidity;BME280_pressure;Samples;Min_cycle;Max_cycle;Signal;HPM_P1;HPM_P2
2023/11/06 00:00:53;;;;;;;1.10;0.20;;;;;;;10.35;87.25;98013.70;107975;1272;25312;-77
2023/11/06 00:03:40;;;;;;;1.00;0.20;;;;;;;10.36;87.23;98022.25;108058;1272;22524;-80
2023/11/06 00:06:09;;;;;;;2.10;0.30;;;;;;;10.34;87.27;98027.81;108910;1272;22570;-80
2023/11/06 00:08:38;;;;;;;3.90;0.30;;;;;;;10.33;87.13;98034.92;108643;1272;22600;-79
2023/11/06 00:11:06;;;;;;;1.50;0.20;;;;;;;10.31;87.08;98044.75;108033;1272;22536;-80
2023/11/06 00:13:34;;;;;;;2.00;0.30;;;;;;;10.29;87.07;98053.40;108583;1272;22564;-80
2023/11/06 00:16:03;;;;;;;1.50;0.20;;;;;;;10.26;87.25;98055.02;108266;1273;235241;-80
2023/11/06 00:18:32;;;;;;;1.50;0.30;;;;;;;10.24;87.26;98060.15;107957;1272;22576;-80
2023/11/06 00:21:02;;;;;;;1.20;0.30;;;;;;;10.23;87.27;98063.62;108037;1272;22571;-79
2023/11/06 00:23:33;;;;;;;0.50;0.10;;;;;;;10.22;87.39;98076.61;108850;1272;22521;-80
2023/11/06 00:26:03;;;;;;;1.10;0.20;;;;;;;10.20;87.50;98082.42;108743;1272;25223;-80
2023/11/06 00:28:31;;;;;;;0.80;0.20;;;;;;;10.19;87.46;98089.43;108069;1269;22549;-80
2023/11/06 00:31:00;;;;;;;1.40;0.10;;;;;;;10.18;87.42;98093.55;107968;1272;22589;-80
2023/11/06 00:33:29;;;;;;;1.00;0.30;;;;;;;10.16;87.50;98100.38;108635;1272;22596;-80
2023/11/06 00:35:57;;;;;;;1.90;0.20;;;;;;;10.15;87.53;98107.19;108062;1272;22522;-80
2023/11/06 00:38:26;;;;;;;1.00;0.20;;;;;;;10.14;87.68;98121.14;107829;1272;22550;-80
2023/11/06 00:40:55;;;;;;;1.10;0.20;;;;;;;10.12;87.84;98123.02;107881;1272;23013;-79
2023/11/06 00:43:24;;;;;;;0.70;0.20;;;;;;;10.11;87.72;98127.54;108021;1269;22491;-80
2023/11/06 00:45:52;;;;;;;1.30;0.20;;;;;;;10.09;87.98;98135.73;108686;1272;22538;-80
2023/11/06 00:48:20;;;;;;;1.00;0.10;;;;;;;10.09;87.83;98135.88;108292;1266;22565;-79
2023/11/06 00:50:50;;;;;;;;;;;;;;;10.08;87.81;98144.00;107923;1272;23248;-80
2023/11/06 00:53:18;;;;;;;1.20;0.20;;;;;;;10.10;87.78;98152.04;108204;1272;25554;-79
2023/11/06 00:55:50;;;;;;;0.50;0.10;;;;;;;10.12;87.70;98153.85;107919;1272;22575;-79
2023/11/06 00:58:19;;;;;;;1.20;0.20;;;;;;;10.14;87.58;98160.52;107909;1272;22696;-79
2023/11/06 01:00:47;;;;;;;1.00;0.10;;;;;;;10.18;87.45;98165.09;108093;1272;22522;-79
2023/11/06 01:03:16;;;;;;;0.80;0.10;;;;;;;10.21;87.31;98169.55;108149;1272;23789;-81
2023/11/06 01:05:47;;;;;;;4.10;0.10;;;;;;;10.24;87.10;98174.74;108626;1272;22623;-80
2023/11/06 01:08:15;;;;;;;0.50;0.10;;;;;;;10.26;86.83;98181.82;108718;1272;22528;-80
2023/11/06 01:10:44;;;;;;;1.70;0.00;;;;;;;10.30;86.63;98181.67;108251;1272;25385;-80
2023/11/06 01:13:13;;;;;;;1.30;0.10;;;;;;;10.33;86.61;98184.88;108294;1272;24471;-81
2023/11/06 01:15:43;;;;;;;1.20;0.10;;;;;;;10.36;86.57;98182.36;108890;1272;23046;-81
2023/11/06 01:18:12;;;;;;;0.90;0.10;;;;;;;10.37;86.54;98189.44;109062;1272;22589;-81
2023/11/06 01:20:41;;;;;;;0.60;0.10;;;;;;;10.38;86.14;98188.32;109876;1272;22644;-81
2023/11/06 01:23:09;;;;;;;2.30;0.20;;;;;;;10.39;85.95;98189.60;110308;1272;22527;-81
2023/11/06 01:25:42;;;;;;;2.40;0.10;;;;;;;10.41;85.72;98198.66;109946;1269;22597;-81
2023/11/06 01:28:11;;;;;;;0.90;0.10;;;;;;;10.42;85.73;98198.99;109530;1269;22646;-81
2023/11/06 01:30:43;;;;;;;0.60;0.00;;;;;;;10.43;85.55;98206.38;109032;1272;22605;-81
2023/11/06 01:33:11;;;;;;;2.00;0.10;;;;;;;10.43;85.59;98216.23;108924;1269;22536;-81
2023/11/06 01:35:39;;;;;;;2.30;0.20;;;;;;;10.42;85.41;98222.64;108907;1272;22562;-81
2023/11/06 01:38:08;;;;;;;2.10;0.20;;;;;;;10.41;85.28;98235.89;108873;1272;22722;-80
2023/11/06 01:40:36;;;;;;;1.70;0.10;;;;;;;10.40;84.97;98237.02;109015;1272;22576;-80
2023/11/06 01:43:05;;;;;;;1.00;0.10;;;;;;;10.42;85.00;98242.41;109083;1272;23433;-81
2023/11/06 01:45:34;;;;;;;1.10;0.20;;;;;;;10.43;84.35;98246.51;109028;1272;23284;-81
2023/11/06 01:48:04;;;;;;;2.30;0.10;;;;;;;10.46;84.13;98252.25;109035;1272;22595;-82
2023/11/06 01:50:35;;;;;;;1.40;0.20;;;;;;;10.47;84.02;98254.06;109007;1272;23841;-81
2023/11/06 01:53:08;;;;;;;1.40;0.20;;;;;;;10.48;84.12;98257.98;109000;1272;22560;-81
2023/11/06 01:55:39;;;;;;;1.10;0.10;;;;;;;10.49;83.92;98264.30;108999;1267;22528;-81
2023/11/06 01:58:07;;;;;;;1.00;0.10;;;;;;;10.49;83.68;98276.25;108864;1270;25408;-81
2023/11/06 02:00:35;;;;;;;1.00;0.10;;;;;;;10.49;83.39;98276.92;108726;1272;25404;-81
2023/11/06 02:03:06;;;;;;;2.40;0.20;;;;;;;10.50;83.46;98286.24;108719;1272;22544;-81
2023/11/06 02:05:35;;;;;;;1.40;0.10;;;;;;;10.50;83.64;98294.61;108741;1269;22646;-81
2023/11/06 02:08:03;;;;;;;0.70;0.10;;;;;;;10.49;83.70;98293.52;108756;1272;22549;-81
2023/11/06 02:10:36;;;;;;;5.30;0.20;;;;;;;10.47;83.67;98298.60;108705;1272;22479;-81
2023/11/06 02:13:04;;;;;;;3.20;0.10;;;;;;;10.44;83.47;98298.89;108787;1272;22617;-81
2023/11/06 02:15:32;;;;;;;1.30;0.20;;;;;;;10.42;83.08;98305.86;108730;1272;22569;-81
2023/11/06 02:18:01;;;;;;;1.80;0.20;;;;;;;10.42;83.03;98312.91;108854;1272;22757;-82
2023/11/06 02:20:29;;;;;;;0.80;0.20;;;;;;;10.42;82.68;98321.80;108935;1272;25420;-81
2023/11/06 02:23:01;;;;;;;1.70;0.20;;;;;;;10.42;82.62;98322.95;109000;1272;23323;-81
2023/11/06 02:25:30;;;;;;;1.80;0.20;;;;;;;10.41;82.13;98329.45;109019;1270;22570;-81
2023/11/06 02:28:00;;;;;;;3.30;0.20;;;;;;;10.42;82.00;98335.98;109067;1268;23433;-81
2023/11/06 02:30:28;;;;;;;0.80;0.10;;;;;;;10.43;81.81;98340.64;109186;1272;23688;-81
2023/11/06 02:32:58;;;;;;;1.80;0.20;;;;;;;10.43;81.61;98346.63;109025;1272;22562;-81
2023/11/06 02:35:26;;;;;;;2.10;0.30;;;;;;;10.43;81.54;98349.57;108995;1272;25663;-81
2023/11/06 02:37:54;;;;;;;2.40;0.30;;;;;;;10.43;81.07;98355.66;109024;1270;22549;-81
2023/11/06 02:40:22;;;;;;;2.90;0.20;;;;;;;10.43;81.33;98361.39;109024;1272;22911;-81
2023/11/06 02:42:50;;;;;;;2.60;0.20;;;;;;;10.43;81.06;98366.11;109016;1272;23344;-81
2023/11/06 02:45:19;;;;;;;1.70;0.20;;;;;;;10.42;80.44;98370.64;109016;1261;22533;-81
2023/11/06 02:47:47;;;;;;;3.30;0.10;;;;;;;10.42;80.11;98378.75;109136;1272;22625;-81
2023/11/06 02:50:15;;;;;;;1.80;0.20;;;;;;;10.42;80.24;98384.29;109059;1272;22620;-81
2023/11/06 02:52:45;;;;;;;0.90;0.10;;;;;;;10.42;80.44;98389.70;109032;1272;23919;-81
2023/11/06 02:55:14;;;;;;;0.70;0.10;;;;;;;10.41;80.08;98398.69;109116;1272;22581;-81
2023/11/06 02:57:42;;;;;;;2.10;0.10;;;;;;;10.40;79.87;98403.16;108865;1272;22638;-81
2023/11/06 03:00:14;;;;;;;3.30;0.10;;;;;;;10.39;79.45;98407.58;108819;1272;22525;-81
2023/11/06 03:02:43;;;;;;;1.30;0.30;;;;;;;10.39;79.04;98411.08;108802;1272;22975;-81
2023/11/06 03:05:11;;;;;;;2.70;0.10;;;;;;;10.39;78.99;98413.71;108725;1270;22584;-81
2023/11/06 03:07:39;;;;;;;0.50;0.10;;;;;;;10.39;78.91;98417.73;108556;1272;22515;-81
2023/11/06 03:10:11;;;;;;;1.90;0.10;;;;;;;10.38;78.18;98422.96;108834;1253;23946;-81
2023/11/06 03:12:39;;;;;;;2.30;0.20;;;;;;;10.39;78.32;98420.06;108828;1272;24275;-81
2023/11/06 03:15:10;;;;;;;3.30;0.30;;;;;;;10.38;78.16;98417.73;108671;1272;22491;-81
2023/11/06 03:17:38;;;;;;;0.80;0.10;;;;;;;10.38;77.86;98424.23;108791;1272;22555;-81
2023/11/06 03:20:10;;;;;;;4.10;0.30;;;;;;;10.37;77.39;98426.38;108687;1272;22521;-81
2023/11/06 03:22:39;;;;;;;2.60;0.20;;;;;;;10.35;77.21;98431.51;108726;1270;23069;-81
2023/11/06 03:25:09;;;;;;;3.70;0.30;;;;;;;10.32;77.31;98432.85;109008;1272;22724;-81
2023/11/06 03:27:38;;;;;;;3.90;0.20;;;;;;;10.30;76.87;98439.27;109054;1272;22542;-81
2023/11/06 03:30:10;;;;;;;1.10;0.10;;;;;;;10.28;77.16;98446.27;109116;1272;23325;-81
2023/11/06 03:32:38;;;;;;;3.70;0.30;;;;;;;10.25;76.98;98446.20;109056;1272;22551;-81
2023/11/06 03:35:08;;;;;;;2.40;0.20;;;;;;;10.22;76.67;98452.11;109098;1266;22542;-81
2023/11/06 03:37:36;;;;;;;2.10;0.20;;;;;;;10.17;76.83;98452.81;109197;1272;22558;-80
2023/11/06 03:40:08;;;;;;;3.10;0.30;;;;;;;10.13;76.18;98462.23;109196;1272;22615;-81
2023/11/06 03:42:37;;;;;;;1.20;0.20;;;;;;;10.09;76.54;98466.14;109060;1272;22736;-81
2023/11/06 03:45:09;;;;;;;2.00;0.30;;;;;;;10.05;75.98;98467.27;109067;1269;24234;-81
2023/11/06 03:47:40;;;;;;;1.00;0.20;;;;;;;10.03;76.18;98469.67;109012;1272;22556;-81
2023/11/06 03:50:09;;;;;;;2.20;0.20;;;;;;;10.02;75.86;98474.03;109079;1272;22472;-81
2023/11/06 03:52:37;;;;;;;4.10;0.10;;;;;;;10.01;76.06;98479.57;109180;1272;22559;-81
2023/11/06 03:55:08;;;;;;;0.80;0.10;;;;;;;9.98;75.85;98479.94;109225;1272;23456;-81
2023/11/06 03:57:36;;;;;;;0.70;0.10;;;;;;;9.96;75.85;98482.30;109116;1272;24177;-81
2023/11/06 04:00:07;;;;;;;1.30;0.20;;;;;;;9.94;76.05;98490.66;109219;1272;22594;-81
2023/11/06 04:02:37;;;;;;;2.40;0.20;;;;;;;9.90;76.01;98490.42;108914;1269;22552;-81
2023/11/06 04:05:08;;;;;;;1.90;0.10;;;;;;;9.88;76.11;98496.38;108696;1267;24158;-81
2023/11/06 04:07:38;;;;;;;3.30;0.20;;;;;;;9.84;75.92;98502.11;108911;1272;22520;-81
2023/11/06 04:10:10;;;;;;;;;;;;;;;9.82;75.92;98503.76;108880;1254;23267;-81
2023/11/06 04:12:39;;;;;;;0.60;0.10;;;;;;;9.80;75.97;98506.22;110785;1270;22183;-81
2023/11/06 04:15:10;;;;;;;1.20;0.50;;;;;;;9.76;76.06;98510.23;110756;1272;22180;-81
2023/11/06 04:17:39;;;;;;;2.70;0.20;;;;;;;9.74;76.12;98510.95;110680;1272;22904;-81
2023/11/06 04:20:10;;;;;;;1.80;0.40;;;;;;;9.73;76.31;98513.55;110795;1272;22882;-81
2023/11/06 04:22:38;;;;;;;2.30;0.20;;;;;;;9.70;76.43;98516.84;110722;1272;22204;-81
2023/11/06 04:25:07;;;;;;;3.70;0.30;;;;;;;9.66;76.19;98518.08;110734;1272;22213;-81
2023/11/06 04:27:35;;;;;;;0.80;0.10;;;;;;;9.63;76.49;98526.11;110758;1272;22204;-81
2023/11/06 04:30:07;;;;;;;3.80;0.20;;;;;;;9.57;76.23;98523.70;110667;1272;22172;-79
2023/11/06 04:32:35;;;;;;;4.50;0.30;;;;;;;9.52;76.38;98531.32;110748;1272;22199;-79
2023/11/06 04:35:07;;;;;;;2.80;0.50;;;;;;;9.44;76.71;98532.82;110746;1272;22300;-79
2023/11/06 04:37:36;;;;;;;1.50;0.20;;;;;;;9.39;76.83;98535.92;110677;1272;22409;-79
2023/11/06 04:40:06;;;;;;;1.80;0.20;;;;;;;9.36;76.93;98543.73;110666;1272;22633;-79
2023/11/06 04:42:35;;;;;;;2.90;0.30;;;;;;;9.32;77.20;98548.70;110731;1270;22162;-79
2023/11/06 04:45:08;;;;;;;1.60;0.20;;;;;;;9.30;77.38;98554.17;110750;1272;22229;-79
2023/11/06 04:47:40;;;;;;;2.20;0.30;;;;;;;9.29;77.58;98559.23;110762;1260;23243;-80
2023/11/06 04:50:12;;;;;;;1.70;0.30;;;;;;;9.29;77.69;98559.25;110769;1272;22941;-80
2023/11/06 04:52:41;;;;;;;2.10;0.30;;;;;;;9.27;77.58;98565.48;110730;1269;22502;-78
2023/11/06 04:55:10;;;;;;;3.10;0.60;;;;;;;9.24;77.67;98564.48;110684;1272;22325;-79
2023/11/06 04:57:38;;;;;;;6.50;0.80;;;;;;;9.22;77.79;98571.68;110758;1272;22514;-79
2023/11/06 05:00:10;;;;;;;4.80;0.80;;;;;;;9.17;77.73;98577.76;110725;1272;22180;-79
2023/11/06 05:02:38;;;;;;;5.10;0.80;;;;;;;9.13;77.71;98580.70;110733;1272;22187;-78
2023/11/06 05:05:09;;;;;;;5.00;0.50;;;;;;;9.07;77.86;98579.50;110674;1272;22280;-79
2023/11/06 05:07:38;;;;;;;1.90;0.30;;;;;;;8.99;77.94;98581.69;110649;1272;22314;-80
2023/11/06 05:10:08;;;;;;;5.70;0.50;;;;;;;8.94;78.34;98583.92;110677;1272;22235;-79
2023/11/06 05:12:38;;;;;;;3.70;0.40;;;;;;;8.89;78.34;98586.45;110572;1272;23126;-79
2023/11/06 05:15:09;;;;;;;3.70;0.80;;;;;;;8.85;78.46;98587.11;110649;1271;23208;-78
2023/11/06 05:17:40;;;;;;;4.30;0.40;;;;;;;8.80;78.54;98593.99;110752;1272;22416;-78
2023/11/06 05:20:10;;;;;;;6.50;0.50;;;;;;;8.75;78.87;98597.13;110001;1265;24654;-78
2023/11/06 05:22:40;;;;;;;4.60;0.50;;;;;;;8.70;78.98;98599.77;110724;1272;22225;-76
2023/11/06 05:25:10;;;;;;;4.10;0.40;;;;;;;8.67;79.12;98602.55;109188;1272;23598;-79
2023/11/06 05:27:38;;;;;;;4.60;0.30;;;;;;;8.63;79.18;98606.95;109585;1272;22640;-79
2023/11/06 05:30:09;;;;;;;5.90;0.80;;;;;;;8.59;79.35;98609.57;108163;1272;22572;-78
2023/11/06 05:32:37;;;;;;;2.70;0.40;;;;;;;8.55;79.40;98614.98;110723;1272;22238;-79
2023/11/06 05:35:08;;;;;;;2.00;0.40;;;;;;;8.49;79.67;98624.73;110594;1266;22151;-79
2023/11/06 05:37:35;;;;;;;;;;;;;;;8.43;79.80;98621.98;110635;1270;22462;-78
2023/11/06 05:40:04;;;;;;;7.20;0.40;;;;;;;8.37;80.02;98629.57;110744;1272;22167;-79
2023/11/06 05:42:32;;;;;;;3.10;0.50;;;;;;;8.34;80.37;98630.27;110748;1272;22209;-77
2023/11/06 05:45:01;;;;;;;2.80;0.40;;;;;;;8.32;80.41;98634.12;110678;1267;22944;-79
2023/11/06 05:47:31;;;;;;;3.80;0.40;;;;;;;8.32;80.54;98641.13;110577;1272;22363;-79
2023/11/06 05:50:00;;;;;;;3.70;0.50;;;;;;;8.32;80.74;98643.91;110602;1272;22332;-79
2023/11/06 05:52:33;;;;;;;2.40;0.30;;;;;;;8.31;80.75;98652.31;110655;1267;22232;-79
2023/11/06 05:55:01;;;;;;;2.80;0.40;;;;;;;8.29;81.00;98651.55;110713;1266;23343;-79
2023/11/06 05:57:29;;;;;;;3.10;0.30;;;;;;;8.29;81.05;98652.36;110604;1269;22205;-80
2023/11/06 05:59:57;;;;;;;4.40;0.40;;;;;;;8.29;81.31;98660.54;110589;1272;22165;-80
2023/11/06 06:02:26;;;;;;;3.00;0.50;;;;;;;8.29;81.40;98660.70;110699;1272;22391;-79
2023/11/06 06:04:54;;;;;;;3.10;0.40;;;;;;;8.29;81.41;98662.52;110681;1267;23284;-80
2023/11/06 06:07:22;;;;;;;2.80;0.50;;;;;;;8.29;81.60;98667.36;110637;1272;22328;-80
2023/11/06 06:09:51;;;;;;;1.30;0.30;;;;;;;8.30;81.77;98673.23;110501;1267;22402;-80
2023/11/06 06:12:19;;;;;;;3.20;0.40;;;;;;;8.32;81.75;98678.95;110664;1272;22281;-80
2023/11/06 06:14:48;;;;;;;4.00;0.40;;;;;;;8.32;81.87;98682.73;110700;1267;23302;-80
2023/11/06 06:17:18;;;;;;;1.50;0.30;;;;;;;8.34;81.96;98689.11;110680;1253;23096;-77
2023/11/06 06:19:46;;;;;;;3.10;0.70;;;;;;;8.37;82.15;98696.30;110698;1269;22172;-77
2023/11/06 06:22:15;;;;;;;1.30;0.30;;;;;;;8.40;82.35;98701.32;108466;1266;22520;-77
2023/11/06 06:24:44;;;;;;;2.20;0.30;;;;;;;8.44;82.60;98712.90;107954;1266;22548;-78
2023/11/06 06:27:15;;;;;;;2.70;0.30;;;;;;;8.49;82.63;98716.41;108023;1266;24184;-77
2023/11/06 06:29:45;;;;;;;10.40;0.70;;;;;;;8.55;82.74;98719.27;108495;1265;22514;-78
2023/11/06 06:32:16;;;;;;;2.60;0.20;;;;;;;8.62;82.67;98724.89;107991;1269;22560;-79
2023/11/06 06:34:44;;;;;;;1.50;0.40;;;;;;;8.68;82.59;98732.09;108464;1272;22540;-78
2023/11/06 06:37:15;;;;;;;2.40;0.40;;;;;;;8.74;82.58;98735.43;108609;1267;22559;-79
2023/11/06 06:39:43;;;;;;;1.50;0.30;;;;;;;8.77;82.42;98743.80;108610;1267;23068;-79
2023/11/06 06:42:11;;;;;;;1.40;0.30;;;;;;;8.80;82.48;98746.23;110678;1272;22263;-78
2023/11/06 06:44:40;;;;;;;6.00;0.30;;;;;;;8.82;82.50;98756.15;110733;1272;23137;-77
2023/11/06 06:47:08;;;;;;;1.30;0.20;;;;;;;8.85;82.45;98765.56;110736;1265;22173;-78
2023/11/06 06:49:40;;;;;;;2.60;0.20;;;;;;;8.88;82.50;98769.05;110758;1266;22496;-78
2023/11/06 06:52:09;;;;;;;4.80;0.40;;;;;;;8.91;82.56;98777.67;110688;1266;22822;-79
2023/11/06 06:54:39;;;;;;;3.60;0.30;;;;;;;8.93;82.56;98785.82;110687;1272;22371;-80
2023/11/06 06:57:07;;;;;;;2.40;0.20;;;;;;;8.97;82.70;98785.73;110695;1272;22349;-78
2023/11/06 06:59:35;;;;;;;1.80;0.30;;;;;;;9.00;82.77;98790.79;110610;1272;22482;-78
2023/11/06 07:02:05;;;;;;;;;;;;;;;9.02;82.50;98790.84;110666;1272;22406;-78
2023/11/06 07:04:33;;;;;;;3.00;0.40;;;;;;;9.05;82.69;98799.46;110755;1272;22200;-78
2023/11/06 07:07:01;;;;;;;6.10;0.50;;;;;;;9.08;82.77;98802.76;110725;1261;22748;-78
2023/11/06 07:09:31;;;;;;;1.50;0.20;;;;;;;9.12;82.82;98804.53;110762;1269;22171;-78
2023/11/06 07:12:02;;;;;;;2.50;0.30;;;;;;;9.16;82.74;98805.85;110709;1272;22304;-78
2023/11/06 07:14:34;;;;;;;0.90;0.20;;;;;;;9.19;82.80;98809.15;110767;1260;22486;-78
2023/11/06 07:17:04;;;;;;;2.50;0.20;;;;;;;9.22;82.67;98813.82;110760;1272;22217;-78
2023/11/06 07:19:32;;;;;;;1.20;0.20;;;;;;;9.25;82.67;98815.29;110746;1256;22442;-78
2023/11/06 07:22:03;;;;;;;1.50;0.30;;;;;;;9.28;82.90;98817.56;110763;1266;22460;-78
2023/11/06 07:24:34;;;;;;;1.00;0.10;;;;;;;9.31;82.95;98819.95;110723;1272;22897;-78
2023/11/06 07:27:03;;;;;;;3.20;0.30;;;;;;;9.36;82.87;98824.45;110779;1272;23192;-78
2023/11/06 07:29:31;;;;;;;2.50;0.30;;;;;;;9.39;82.84;98830.91;110571;1272;22470;-78
2023/11/06 07:31:59;;;;;;;2.60;0.30;;;;;;;9.41;82.84;98826.40;110670;1272;22799;-78
2023/11/06 07:34:29;;;;;;;;;;;;;;;9.44;82.93;98826.49;110757;1272;23171;-78
2023/11/06 07:36:57;;;;;;;0.70;0.20;;;;;;;9.47;82.90;98834.21;110796;1272;22451;-78
2023/11/06 07:39:28;;;;;;;3.00;0.30;;;;;;;9.51;83.02;98835.47;110661;1272;23030;-78
2023/11/06 07:41:56;;;;;;;3.30;0.40;;;;;;;9.56;83.09;98842.35;110727;1272;22315;-77
2023/11/06 07:44:26;;;;;;;3.70;0.50;;;;;;;9.62;83.11;98846.32;110667;1272;22515;-77
2023/11/06 07:46:56;;;;;;;7.20;1.00;;;;;;;9.67;83.14;98849.20;110760;1272;23039;-77
2023/11/06 07:49:27;;;;;;;2.20;0.30;;;;;;;9.72;83.11;98850.23;110766;1269;22160;-78
2023/11/06 07:51:56;;;;;;;6.20;0.40;;;;;;;9.76;82.98;98852.04;110755;1272;22404;-77
2023/11/06 07:54:24;;;;;;;5.70;0.40;;;;;;;9.83;83.18;98854.12;110744;1272;22162;-77
2023/11/06 07:56:52;;;;;;;9.50;0.40;;;;;;;9.92;83.26;98857.80;110741;1272;22323;-77
2023/11/06 07:59:23;;;;;;;3.30;0.30;;;;;;;10.03;82.92;98860.65;110750;1272;22841;-77
2023/11/06 08:01:51;;;;;;;2.80;0.30;;;;;;;10.14;82.93;98861.06;110740;1267;22311;-77
2023/11/06 08:04:19;;;;;;;4.40;0.40;;;;;;;10.23;82.69;98866.02;110733;1272;22213;-78
2023/11/06 08:06:48;;;;;;;7.20;0.80;;;;;;;10.32;82.78;98868.55;110765;1266;22182;-77
2023/11/06 08:09:18;;;;;;;8.10;0.60;;;;;;;10.39;82.73;98872.34;110749;1272;22693;-78
2023/11/06 08:11:51;;;;;;;14.70;0.60;;;;;;;10.46;82.53;98881.14;110639;1266;22151;-77
2023/11/06 08:14:19;;;;;;;7.00;0.50;;;;;;;10.55;82.36;98881.63;110770;1272;22201;-79
2023/11/06 08:16:48;;;;;;;2.70;0.30;;;;;;;10.64;82.24;98886.56;110754;1266;22281;-79
2023/11/06 08:19:16;;;;;;;2.10;0.30;;;;;;;10.71;81.83;98887.21;110770;1272;22177;-80
2023/11/06 08:21:49;;;;;;;2.40;0.30;;;;;;;10.78;81.65;98894.90;110689;1272;22411;-79
2023/11/06 08:24:17;;;;;;;2.40;0.30;;;;;;;10.86;81.67;98900.71;110709;1272;22209;-79
2023/11/06 08:26:49;;;;;;;4.60;0.40;;;;;;;10.93;81.44;98902.91;110708;1272;22218;-80
2023/11/06 08:29:20;;;;;;;2.70;0.30;;;;;;;11.00;80.58;98910.15;110795;1272;22953;-80
2023/11/06 08:31:49;;;;;;;2.40;0.20;;;;;;;11.05;80.17;98911.14;110726;1266;23044;-79
2023/11/06 08:34:21;;;;;;;1.70;0.20;;;;;;;11.12;79.90;98911.06;110747;1272;22234;-80
2023/11/06 08:36:49;;;;;;;2.90;0.30;;;;;;;11.19;79.20;98917.27;110757;1272;22188;-79
2023/11/06 08:39:20;;;;;;;5.30;0.40;;;;;;;11.25;79.41;98924.83;110760;1272;22955;-80
2023/11/06 08:41:48;;;;;;;3.50;0.30;;;;;;;11.30;79.67;98929.82;110723;1272;22507;-79
2023/11/06 08:44:17;;;;;;;4.30;0.20;;;;;;;11.36;79.10;98937.70;110766;1272;22438;-80
2023/11/06 08:46:50;;;;;;;3.70;0.40;;;;;;;11.41;79.07;98938.09;110746;1272;22198;-80
2023/11/06 08:49:20;;;;;;;1.50;0.10;;;;;;;11.47;78.97;98938.77;110524;1273;22271;-79
2023/11/06 08:51:48;;;;;;;2.40;0.10;;;;;;;11.51;78.42;98946.63;110636;1272;22357;-79
2023/11/06 08:54:16;;;;;;;2.90;0.40;;;;;;;11.55;78.34;98951.43;110774;1272;22171;-79
2023/11/06 08:56:44;;;;;;;7.90;0.70;;;;;;;11.59;78.11;98955.02;110791;1272;22188;-80
2023/11/06 08:59:13;;;;;;;4.50;0.40;;;;;;;11.62;78.05;98961.72;110718;1272;22226;-80
2023/11/06 09:01:46;;;;;;;4.80;0.80;;;;;;;11.65;78.03;98967.29;110731;1272;22394;-81
2023/11/06 09:04:14;;;;;;;7.50;1.00;;;;;;;11.70;78.09;98974.45;110710;1272;22919;-80
2023/11/06 09:06:44;;;;;;;3.40;0.30;;;;;;;11.76;78.07;98979.04;110792;1270;22551;-79
2023/11/06 09:09:15;;;;;;;2.50;0.30;;;;;;;11.81;78.41;98986.80;110544;1273;22978;-80
2023/11/06 09:11:44;;;;;;;2.90;0.50;;;;;;;11.83;78.37;98985.41;110653;1272;22290;-79
2023/11/06 09:14:14;;;;;;;6.20;0.60;;;;;;;11.85;79.01;98992.66;110776;1272;22424;-80
2023/11/06 09:16:42;;;;;;;5.80;0.40;;;;;;;11.87;79.42;98997.88;110796;1272;22186;-80
2023/11/06 09:19:11;;;;;;;2.70;0.40;;;;;;;11.89;79.21;99000.83;110581;1272;22193;-80
2023/11/06 09:21:40;;;;;;;5.40;0.50;;;;;;;11.91;79.41;99007.89;110671;1272;22200;-80
2023/11/06 09:24:11;;;;;;;3.50;0.30;;;;;;;11.92;79.59;99009.86;110742;1272;22369;-80
2023/11/06 09:26:39;;;;;;;4.60;0.20;;;;;;;11.93;79.49;99006.30;110726;1272;22231;-80
2023/11/06 09:29:10;;;;;;;3.60;0.40;;;;;;;11.92;79.41;99008.73;110809;1272;22492;-80
2023/11/06 09:31:40;;;;;;;3.00;0.20;;;;;;;11.92;79.17;99007.11;110855;1266;22214;-80
2023/11/06 09:34:10;;;;;;;14.30;0.50;;;;;;;11.91;79.10;99011.02;110789;1272;22021;-80
2023/11/06 09:36:39;;;;;;;3.90;0.50;;;;;;;11.91;78.75;99015.20;110774;1272;22591;-79
2023/11/06 09:39:09;;;;;;;2.30;0.20;;;;;;;11.91;78.82;99011.95;110648;1272;22681;-79
2023/11/06 09:41:38;;;;;;;2.80;0.40;;;;;;;11.92;78.69;99016.11;110669;1262;22219;-79
2023/11/06 09:44:07;;;;;;;1.20;0.30;;;;;;;11.94;78.44;99021.48;110727;1272;23105;-79
2023/11/06 09:46:36;;;;;;;4.40;0.40;;;;;;;11.94;78.53;99022.96;110733;1272;22381;-79
2023/11/06 09:49:11;;;;;;;2.50;0.50;;;;;;;11.96;78.53;99024.41;110731;1272;22966;-80
2023/11/06 09:51:44;;;;;;;5.60;0.40;;;;;;;11.96;78.22;99026.20;110721;1272;22219;-80
2023/11/06 09:54:12;;;;;;;8.60;0.50;;;;;;;11.96;78.05;99031.18;110612;1272;22155;-80
2023/11/06 09:56:42;;;;;;;1.80;0.20;;;;;;;11.96;77.97;99032.05;110802;1272;22871;-80
2023/11/06 09:59:13;;;;;;;7.80;0.50;;;;;;;11.98;78.34;99032.77;110681;1260;22237;-79
2023/11/06 10:01:43;;;;;;;4.10;0.40;;;;;;;12.00;78.44;99032.64;110693;1272;22418;-80
2023/11/06 10:04:12;;;;;;;5.50;0.50;;;;;;;12.03;78.54;99035.37;110746;1265;23284;-80
2023/11/06 10:06:46;;;;;;;9.60;0.40;;;;;;;12.08;78.70;99033.15;110725;1272;22261;-80
2023/11/06 10:09:22;;;;;;;6.90;0.60;;;;;;;12.12;78.41;99034.55;110771;1272;22182;-80
2023/11/06 10:11:50;;;;;;;8.00;0.60;;;;;;;12.17;78.35;99037.16;110649;1272;22269;-80
2023/11/06 10:14:34;;;;;;;4.60;0.50;;;;;;;12.21;78.38;99038.09;110773;1272;22735;-79
2023/11/06 10:17:03;;;;;;;8.70;0.60;;;;;;;12.29;78.30;99038.70;110748;1272;22481;-80
2023/11/06 10:19:32;;;;;;;3.50;0.40;;;;;;;12.38;78.72;99037.47;110803;1257;22224;-79
2023/11/06 10:22:12;;;;;;;1.50;0.40;;;;;;;12.50;78.59;99039.92;110740;1261;22421;-80
2023/11/06 10:24:51;;;;;;;3.20;0.30;;;;;;;12.62;78.57;99038.25;110733;1272;22208;-79
2023/11/06 10:27:24;;;;;;;2.20;0.30;;;;;;;12.69;78.16;99040.36;110678;1272;22481;-79
2023/11/06 10:30:04;;;;;;;3.40;0.50;;;;;;;12.73;77.40;99044.83;110685;1272;22376;-80
2023/11/06 10:32:33;;;;;;;2.00;0.30;;;;;;;12.76;76.77;99046.71;110707;1272;22361;-80
2023/11/06 10:35:02;;;;;;;4.20;0.30;;;;;;;12.77;75.23;99044.02;110754;1272;22458;-79
2023/11/06 10:37:38;;;;;;;6.00;0.40;;;;;;;12.77;75.14;99052.72;110771;1272;22387;-80
2023/11/06 10:40:12;;;;;;;7.60;0.60;;;;;;;12.78;74.45;99051.09;110794;1272;22328;-80
2023/11/06 10:42:44;;;;;;;3.90;0.40;;;;;;;12.81;74.57;99055.84;110755;1272;22216;-79
2023/11/06 10:45:14;;;;;;;3.20;0.30;;;;;;;12.88;74.65;99056.84;110771;1272;22319;-79
2023/11/06 10:47:46;;;;;;;1.70;0.40;;;;;;;12.96;74.29;99053.52;110849;1272;22238;-80
2023/11/06 10:50:20;;;;;;;3.70;0.30;;;;;;;13.04;73.91;99054.68;110718;1269;22960;-79
2023/11/06 10:52:53;;;;;;;4.20;0.20;;;;;;;13.09;73.80;99059.60;110779;1272;22330;-80
2023/11/06 10:55:22;;;;;;;1.20;0.10;;;;;;;13.12;73.67;99064.85;110787;1272;22184;-80
2023/11/06 10:57:52;;;;;;;4.50;0.30;;;;;;;13.13;72.64;99069.38;110822;1272;22225;-80
2023/11/06 11:00:24;;;;;;;7.50;0.30;;;;;;;13.14;71.81;99066.82;110527;1272;22212;-80
2023/11/06 11:02:54;;;;;;;5.00;0.30;;;;;;;13.19;72.61;99069.63;110704;1272;22297;-79
2023/11/06 11:05:24;;;;;;;2.50;0.20;;;;;;;13.23;72.47;99073.15;110748;1272;22243;-80
2023/11/06 11:07:53;;;;;;;1.20;0.20;;;;;;;13.22;72.04;99075.95;110726;1272;22168;-79
2023/11/06 11:10:27;;;;;;;3.70;0.30;;;;;;;13.22;71.16;99081.61;110783;1272;22269;-79
2023/11/06 11:13:03;;;;;;;3.00;0.30;;;;;;;13.19;71.77;99084.30;110786;1272;22342;-80
2023/11/06 11:15:32;;;;;;;3.40;0.30;;;;;;;13.16;71.88;99087.83;110719;1272;22343;-79
2023/11/06 11:18:04;;;;;;;2.50;0.30;;;;;;;13.14;71.78;99084.55;110776;1272;22391;-79
2023/11/06 11:20:53;;;;;;;3.30;0.30;;;;;;;13.12;71.88;99094.00;110726;1272;22967;-79
2023/11/06 11:23:37;;;;;;;2.30;0.10;;;;;;;13.11;71.26;99097.11;110680;1266;22213;-80
2023/11/06 11:26:06;;;;;;;2.40;0.60;;;;;;;13.11;70.76;99103.02;110766;1266;22378;-79
2023/11/06 11:28:54;;;;;;;1.50;0.20;;;;;;;13.12;70.97;99100.98;110654;1272;22347;-79
2023/11/06 11:31:42;;;;;;;2.80;0.30;;;;;;;13.12;70.80;99109.13;110696;1272;22379;-79
2023/11/06 11:34:26;;;;;;;3.80;0.20;;;;;;;13.10;70.84;99105.63;110759;1272;22346;-80
2023/11/06 11:36:56;;;;;;;1.90;0.20;;;;;;;13.09;70.90;99106.81;110714;1272;22809;-80
2023/11/06 11:39:28;;;;;;;3.40;0.30;;;;;;;13.06;70.66;99117.54;110785;1272;23349;-79
2023/11/06 11:42:22;;;;;;;3.20;0.20;;;;;;;13.03;70.48;99113.56;110755;1272;22618;-80